< Cyclone 201722 2017 Season Cyclone 201724 >
Cyclone 201723 (Caleb)
General InformationTrack Information on Google MapsDetailed Wind InformationList of All Images || ResourceGoogle EarthGE AnimationAtom FeedGeoJSON
Detalied Best Track (Time Zone = UTC)
Year Month Day Hour Lat. Long. Pressure (hPa) Wind (kt) Class Image Chart
2017 3 21 18 -9.9 96.0 1007 15 2 Image --
2017 3 22 00 -10.2 97.3 1007 20 2 Image --
2017 3 22 06 -10.2 98.5 1006 25 2 Image --
2017 3 22 12 -10.9 99.3 1004 30 2 Image --
2017 3 22 18 -11.3 99.8 1003 30 2 Image --
2017 3 23 00 -12.1 100.2 1001 35 3 Image --
2017 3 23 06 -12.6 100.6 1000 35 3 Image --
2017 3 23 12 -13.2 100.7 1000 35 3 Image --
2017 3 23 18 -13.2 100.7 998 40 3 Image --
2017 3 24 00 -13.9 100.8 997 40 3 Image --
2017 3 24 06 -14.2 100.8 997 40 3 Image --
2017 3 24 12 -14.5 100.6 994 45 3 Image --
2017 3 24 18 -14.8 100.4 994 45 3 Image --
2017 3 25 00 -15.2 100.3 996 40 3 Image --
2017 3 25 06 -15.5 100.3 996 40 3 Image --
2017 3 25 12 -15.6 100.1 996 40 3 Image --
2017 3 25 18 -15.7 99.8 996 40 3 Image --
2017 3 26 00 -15.8 99.6 998 40 3 Image --
2017 3 26 06 -15.9 99.3 998 40 3 Image --
2017 3 26 12 -15.6 98.6 1000 35 3 Image --
2017 3 26 18 -15.3 98.1 1002 35 3 Image --
2017 3 27 00 -15.3 97.8 1004 30 2 Image --
2017 3 27 06 -15.3 97.2 1005 30 2 Image --
2017 3 27 12 -15.3 97.0 1005 30 2 Image --
2017 3 27 18 -15.1 96.5 1005 30 2 Image --
2017 3 28 00 -15.2 96.2 1005 30 2 Image --
2017 3 28 06 -15.6 95.8 1005 30 2 Image --
2017 3 28 12 -15.4 95.3 1005 30 2 Image --
2017 3 28 18 -15.5 94.7 1005 30 2 Image --
2017 3 29 00 -15.7 94.1 1005 30 2 Image --
2017 3 29 06 -15.8 93.2 1008 25 2 Image --
2017 3 29 12 -16.4 92.7 1008 25 2 Image --
2017 3 29 18 -16.2 91.8 1008 25 2 Image --
2017 3 30 00 -16.1 91.3 1009 25 2 Image --
< Cyclone 201722 2017 Season Cyclone 201724 >

Help